SARS/PRQ METAR and TAF weather

Enter ICAO airport designator
Station Type Date Time Source
SARS METAR 2019/08/09 09:47 UTC NOAA

SARS 090947Z 25010KT 2500 FG OVC005 09/09 Q1020


Station Type Date Time Source
SARS Decoded METAR 2019/08/09 09:47 UTC NOAA

Presidencia Roque Saenz Pena Aerodrome, Argentina (SARS) 26-49S 060-27W 92M
Aug 09, 2019 - 05:47 AM EDT / 2019.08.09 0947 UTC
Wind: from the WSW (250 degrees) at 12 MPH (10 KT):0
Visibility: 1 mile(s):0
Sky conditions: overcast
Weather: fog
Temperature: 48 F (9 C)
Dew Point: 48 F (9 C)
Relative Humidity: 100%
Pressure (altimeter): 30.12 in. Hg (1020 hPa)
ob: SARS 090947Z 25010KT 2500 FG OVC005 09/09 Q1020
cycle: 10

Station Type Date Time Source
SARS TAF UTC NOAA

Error!

Example: see airport list